createdAt,value
2022-09-14T00:01:30.531Z,1.88
2022-09-14T00:04:05.107Z,3.25
2022-09-14T00:06:32.372Z,3.20
2022-09-14T00:09:00.983Z,5.70
2022-09-14T00:11:31.328Z,2.63
2022-09-14T00:14:00.398Z,1.63
2022-09-14T00:16:31.399Z,3.10
2022-09-14T00:19:06.674Z,1.60
2022-09-14T00:21:38.646Z,1.85
2022-09-14T00:24:07.084Z,4.00
2022-09-14T00:26:34.177Z,1.48
2022-09-14T00:29:04.497Z,2.55
2022-09-14T00:31:34.593Z,4.10
2022-09-14T00:34:02.856Z,6.80
2022-09-14T00:36:31.385Z,2.70
2022-09-14T00:39:00.428Z,3.30
2022-09-14T00:41:34.404Z,5.78
2022-09-14T00:44:11.805Z,4.70
2022-09-14T00:46:48.487Z,4.55
2022-09-14T00:49:38.259Z,3.80
2022-09-14T00:52:25.717Z,2.35
2022-09-14T00:55:00.546Z,6.95
2022-09-14T00:57:31.209Z,3.70
2022-09-14T00:59:58.189Z,5.03
2022-09-14T01:02:27.768Z,4.43
2022-09-14T01:04:54.777Z,5.25
2022-09-14T01:07:59.775Z,3.47
2022-09-14T01:11:13.571Z,3.95
2022-09-14T01:13:49.024Z,6.22
2022-09-14T01:16:22.936Z,5.63
2022-09-14T01:19:00.795Z,5.07
2022-09-14T01:21:38.121Z,3.85
2022-09-14T01:24:25.848Z,2.42
2022-09-14T01:27:01.442Z,3.67
2022-09-14T01:29:34.376Z,7.40
2022-09-14T01:32:26.285Z,7.35
2022-09-14T01:35:24.680Z,6.63
2022-09-14T01:38:02.653Z,8.07
2022-09-14T01:40:47.218Z,7.55
2022-09-14T01:43:27.837Z,12.52
2022-09-14T01:46:03.443Z,10.88
2022-09-14T01:49:03.976Z,15.45
2022-09-14T01:51:39.427Z,12.30
2022-09-14T01:54:16.405Z,16.80
2022-09-14T01:56:56.904Z,15.43
2022-09-14T01:59:34.487Z,13.25
2022-09-14T02:02:10.140Z,11.93
2022-09-14T02:05:18.293Z,14.55
2022-09-14T02:07:45.145Z,11.27
2022-09-14T02:10:15.668Z,11.90
2022-09-14T02:12:42.885Z,11.48
2022-09-14T02:15:13.283Z,11.55
2022-09-14T02:17:40.962Z,12.38
2022-09-14T02:20:15.783Z,7.85
2022-09-14T02:22:42.411Z,9.95
2022-09-14T02:25:09.273Z,10.32
2022-09-14T02:27:35.862Z,6.38
2022-09-14T02:30:02.694Z,9.43
2022-09-14T02:32:58.690Z,8.25
2022-09-14T02:35:34.982Z,9.77
2022-09-14T02:38:27.857Z,7.85
2022-09-14T02:41:11.959Z,11.43
2022-09-14T02:44:02.497Z,6.30
2022-09-14T02:46:47.400Z,6.38
2022-09-14T02:49:45.713Z,8.40
2022-09-14T02:52:19.447Z,8.88
2022-09-14T02:55:08.255Z,10.85
2022-09-14T02:58:07.735Z,6.13
2022-09-14T03:00:42.043Z,6.18
2022-09-14T03:03:12.030Z,9.30
2022-09-14T03:05:38.971Z,10.00
2022-09-14T03:08:06.276Z,9.27
2022-09-14T03:10:33.215Z,11.15
2022-09-14T03:13:00.429Z,8.10
2022-09-14T03:15:28.320Z,9.82
2022-09-14T03:17:55.325Z,8.68
2022-09-14T03:20:27.548Z,8.65
2022-09-14T03:22:54.448Z,8.55
2022-09-14T03:25:23.003Z,8.73
2022-09-14T03:27:52.264Z,7.55
2022-09-14T03:30:19.811Z,7.80
2022-09-14T03:32:46.434Z,10.70
2022-09-14T03:35:13.922Z,8.77
2022-09-14T03:37:42.928Z,11.88
2022-09-14T03:40:15.933Z,9.52
2022-09-14T03:42:47.960Z,10.52
2022-09-14T03:45:16.779Z,7.30
2022-09-14T03:47:44.153Z,14.05
2022-09-14T03:50:12.872Z,10.65
2022-09-14T03:52:40.158Z,8.13
2022-09-14T03:55:09.237Z,11.85
2022-09-14T03:57:37.377Z,8.18
2022-09-14T04:00:07.055Z,8.25
2022-09-14T04:02:33.846Z,9.95
2022-09-14T04:05:00.538Z,10.38
2022-09-14T04:07:27.212Z,12.10
2022-09-14T04:09:53.762Z,12.75
2022-09-14T04:12:20.386Z,9.73
2022-09-14T04:14:46.927Z,10.68
2022-09-14T04:17:13.595Z,11.02
2022-09-14T04:19:42.008Z,10.68
2022-09-14T04:22:08.685Z,10.88
2022-09-14T04:24:36.339Z,7.57
2022-09-14T04:27:03.060Z,7.97
2022-09-14T04:29:30.455Z,8.13
2022-09-14T04:31:57.871Z,12.68
2022-09-14T04:34:24.807Z,10.55
2022-09-14T04:36:51.672Z,10.23
2022-09-14T04:39:22.150Z,10.95
2022-09-14T04:41:48.857Z,10.10
2022-09-14T04:44:15.800Z,11.27
2022-09-14T04:46:46.435Z,8.52
2022-09-14T04:49:16.422Z,11.10
2022-09-14T04:51:43.140Z,10.23
2022-09-14T04:54:13.952Z,12.35
2022-09-14T04:56:41.400Z,10.82
2022-09-14T04:59:08.220Z,9.80
2022-09-14T05:01:39.345Z,11.30
2022-09-14T05:04:08.433Z,10.88
2022-09-14T05:06:38.980Z,11.52
2022-09-14T05:09:14.500Z,11.68
2022-09-14T05:11:42.018Z,11.45
2022-09-14T05:14:13.285Z,11.57
2022-09-14T05:16:41.965Z,14.23
2022-09-14T05:19:14.167Z,9.75
2022-09-14T05:21:41.001Z,10.43
2022-09-14T05:24:15.423Z,8.93
2022-09-14T05:26:44.365Z,10.35
2022-09-14T05:29:17.561Z,9.73
2022-09-14T05:31:45.079Z,12.70
2022-09-14T05:34:12.377Z,10.50
2022-09-14T05:36:40.117Z,13.50
2022-09-14T05:39:08.160Z,10.45
2022-09-14T05:41:34.858Z,11.88
2022-09-14T05:44:01.709Z,15.80
2022-09-14T05:46:28.420Z,11.45
2022-09-14T05:48:55.178Z,9.38
2022-09-14T05:51:25.331Z,10.48
2022-09-14T05:53:57.975Z,9.82
2022-09-14T05:56:27.975Z,14.13
2022-09-14T05:58:55.334Z,11.45
2022-09-14T06:01:25.825Z,9.10
2022-09-14T06:04:00.098Z,9.88
2022-09-14T06:06:27.017Z,9.30
2022-09-14T06:08:55.315Z,11.52
2022-09-14T06:11:32.565Z,11.48
2022-09-14T06:13:59.389Z,8.98
2022-09-14T06:16:28.010Z,11.02
2022-09-14T06:18:56.966Z,11.27
2022-09-14T06:21:33.387Z,11.63
2022-09-14T06:24:00.105Z,11.88
2022-09-14T06:26:26.939Z,10.63
2022-09-14T06:28:53.858Z,9.88
2022-09-14T06:31:22.503Z,9.30
2022-09-14T06:33:50.501Z,9.23
2022-09-14T06:36:20.671Z,8.68
2022-09-14T06:38:51.299Z,6.50
2022-09-14T06:41:23.131Z,6.20
2022-09-14T06:43:50.731Z,7.05
2022-09-14T06:46:22.074Z,4.13
2022-09-14T06:49:07.229Z,4.40
2022-09-14T06:51:37.779Z,4.15
2022-09-14T06:54:05.947Z,5.80
2022-09-14T06:56:36.094Z,5.13
2022-09-14T06:59:03.581Z,5.38
2022-09-14T07:01:30.264Z,5.70
2022-09-14T07:03:58.016Z,6.13
2022-09-14T07:06:27.584Z,5.35
2022-09-14T07:08:55.619Z,7.53
2022-09-14T07:11:27.072Z,5.10
2022-09-14T07:13:57.148Z,5.63
2022-09-14T07:16:24.397Z,5.88
2022-09-14T07:18:59.749Z,8.00
2022-09-14T07:21:26.649Z,7.00
2022-09-14T07:23:53.852Z,7.60
2022-09-14T07:26:24.394Z,5.90
2022-09-14T07:28:55.425Z,6.57
2022-09-14T07:31:26.599Z,5.85
2022-09-14T07:34:03.280Z,6.65
2022-09-14T07:36:35.095Z,7.03
2022-09-14T07:39:06.570Z,7.47
2022-09-14T07:41:34.743Z,6.80
2022-09-14T07:44:04.448Z,6.25
2022-09-14T07:46:38.196Z,5.72
2022-09-14T07:49:06.346Z,4.70
2022-09-14T07:51:34.913Z,3.10
2022-09-14T07:54:01.723Z,3.03
2022-09-14T07:56:29.362Z,2.63
2022-09-14T07:59:11.851Z,3.30
2022-09-14T08:01:46.598Z,3.65
2022-09-14T08:04:13.264Z,5.07
2022-09-14T08:06:40.431Z,4.47
2022-09-14T08:09:10.631Z,4.25
2022-09-14T08:11:38.290Z,3.30
2022-09-14T08:14:12.258Z,3.42
2022-09-14T08:16:40.391Z,3.30
2022-09-14T08:19:15.434Z,2.72
2022-09-14T08:21:46.920Z,2.80
2022-09-14T08:24:17.868Z,2.58
2022-09-14T08:26:45.004Z,3.03
2022-09-14T08:29:13.463Z,3.30
2022-09-14T08:31:40.510Z,3.72
2022-09-14T08:34:08.080Z,3.50
2022-09-14T08:36:38.258Z,3.22
2022-09-14T08:39:10.325Z,3.78
2022-09-14T08:41:56.778Z,2.88
2022-09-14T08:44:28.708Z,5.03
2022-09-14T08:47:27.793Z,2.45
2022-09-14T08:50:20.041Z,1.98
2022-09-14T08:52:55.148Z,5.55
2022-09-14T08:55:42.922Z,4.25
2022-09-14T08:58:46.268Z,4.90
2022-09-14T09:01:48.586Z,2.70
2022-09-14T09:04:39.916Z,3.15
2022-09-14T09:07:44.015Z,3.58
2022-09-14T09:10:12.639Z,4.25
2022-09-14T09:12:59.729Z,2.80
2022-09-14T09:15:36.858Z,6.20
2022-09-14T09:18:37.299Z,5.38
2022-09-14T09:21:22.694Z,5.90
2022-09-14T09:23:49.457Z,6.53
2022-09-14T09:26:32.415Z,4.90
2022-09-14T09:29:01.680Z,5.03
2022-09-14T09:31:44.167Z,5.90
2022-09-14T09:34:15.543Z,7.60
2022-09-14T09:36:46.996Z,5.13
2022-09-14T09:39:16.718Z,6.97
2022-09-14T09:41:48.764Z,7.68
2022-09-14T09:44:15.734Z,6.43
2022-09-14T09:46:51.812Z,7.53
2022-09-14T09:49:33.271Z,9.52
2022-09-14T09:52:12.917Z,9.18
2022-09-14T09:54:51.297Z,7.95
2022-09-14T09:57:31.422Z,9.52
2022-09-14T10:00:13.686Z,7.28
2022-09-14T10:02:41.420Z,7.68
2022-09-14T10:05:10.968Z,6.55
2022-09-14T10:07:42.316Z,8.88
2022-09-14T10:10:13.502Z,7.15
2022-09-14T10:12:51.843Z,7.65
2022-09-14T10:15:25.719Z,7.40
2022-09-14T10:18:11.067Z,7.65
2022-09-14T10:21:06.664Z,7.22
2022-09-14T10:23:37.285Z,6.47
2022-09-14T10:26:12.609Z,7.85
2022-09-14T10:28:42.337Z,8.93
2022-09-14T10:31:14.736Z,6.15
2022-09-14T10:33:42.229Z,8.95
2022-09-14T10:36:34.083Z,6.38
2022-09-14T10:39:26.145Z,9.45
2022-09-14T10:42:03.076Z,9.18
2022-09-14T10:44:54.305Z,5.40
2022-09-14T10:48:03.210Z,6.95
2022-09-14T10:50:57.253Z,8.90
2022-09-14T10:53:44.365Z,8.45
2022-09-14T10:56:50.790Z,9.65
2022-09-14T11:00:04.369Z,12.80
2022-09-14T11:02:49.376Z,6.72
2022-09-14T11:05:28.758Z,7.20
2022-09-14T11:08:07.286Z,7.50
2022-09-14T11:11:00.898Z,7.40
2022-09-14T11:14:07.410Z,7.25
2022-09-14T11:16:41.533Z,8.43
2022-09-14T11:19:47.334Z,7.35
2022-09-14T11:22:54.130Z,10.35
2022-09-14T11:26:00.031Z,8.82
2022-09-14T11:28:43.111Z,10.00
2022-09-14T11:31:55.302Z,9.00
2022-09-14T11:34:38.016Z,9.30
2022-09-14T11:37:14.352Z,9.85
2022-09-14T11:40:00.701Z,11.20
2022-09-14T11:42:37.628Z,7.07
2022-09-14T11:45:18.530Z,8.75
2022-09-14T11:47:59.268Z,9.07
2022-09-14T11:50:30.708Z,8.50
2022-09-14T11:53:16.042Z,8.88
2022-09-14T11:55:49.445Z,10.35
2022-09-14T11:58:23.891Z,8.02
2022-09-14T12:01:05.699Z,8.65
2022-09-14T12:04:14.185Z,7.95
2022-09-14T12:06:40.766Z,9.10
2022-09-14T12:09:17.094Z,8.73
2022-09-14T12:11:44.935Z,6.88
2022-09-14T12:14:27.358Z,9.98
2022-09-14T12:17:39.455Z,7.80
2022-09-14T12:20:36.979Z,9.48
2022-09-14T12:23:37.193Z,12.25
2022-09-14T12:26:12.538Z,6.93
2022-09-14T12:28:49.204Z,8.88
2022-09-14T12:31:49.029Z,7.60
2022-09-14T12:34:25.058Z,6.40
2022-09-14T12:36:52.006Z,6.53
2022-09-14T12:39:31.412Z,8.35
2022-09-14T12:42:03.418Z,6.38
2022-09-14T12:44:39.289Z,8.07
2022-09-14T12:47:24.301Z,6.25
2022-09-14T12:49:57.511Z,5.18
2022-09-14T12:52:48.419Z,6.13
2022-09-14T12:55:49.727Z,5.10
2022-09-14T12:58:44.106Z,5.45
2022-09-14T13:01:45.016Z,9.70
2022-09-14T13:04:24.963Z,7.88
2022-09-14T13:06:53.339Z,5.85
2022-09-14T13:09:26.355Z,5.00
2022-09-14T13:11:59.495Z,5.25
2022-09-14T13:14:33.542Z,5.97
2022-09-14T13:17:03.203Z,5.15
2022-09-14T13:19:33.450Z,5.13
2022-09-14T13:22:02.794Z,4.93
2022-09-14T13:24:43.155Z,6.45
2022-09-14T13:27:23.942Z,4.53
2022-09-14T13:30:11.790Z,5.10
2022-09-14T13:32:45.593Z,3.75
2022-09-14T13:35:38.685Z,4.20
2022-09-14T13:38:10.185Z,3.95
2022-09-14T13:40:37.942Z,3.20
2022-09-14T13:43:05.345Z,3.00
2022-09-14T13:45:32.977Z,4.07
2022-09-14T13:47:59.820Z,4.28
2022-09-14T13:50:26.989Z,4.25
2022-09-14T13:53:03.547Z,3.88
2022-09-14T13:55:33.536Z,6.55
2022-09-14T13:58:12.823Z,4.82
2022-09-14T14:00:59.873Z,4.15
2022-09-14T14:03:38.432Z,4.95
2022-09-14T14:06:28.316Z,3.38
2022-09-14T14:09:08.526Z,4.68
2022-09-14T14:11:43.124Z,2.75
2022-09-14T14:14:17.194Z,4.80
2022-09-14T14:17:27.512Z,2.70
2022-09-14T14:19:57.340Z,5.93
2022-09-14T14:22:37.304Z,8.40
2022-09-14T14:25:19.607Z,7.05
2022-09-14T14:27:47.987Z,3.60
2022-09-14T14:30:21.326Z,3.60
2022-09-14T14:32:53.657Z,4.18
2022-09-14T14:35:26.956Z,4.65
2022-09-14T14:37:54.883Z,6.57
2022-09-14T14:40:21.932Z,4.32
2022-09-14T14:42:49.946Z,4.15
2022-09-14T14:45:26.112Z,9.82
2022-09-14T14:47:54.941Z,6.78
2022-09-14T14:50:30.455Z,3.63
2022-09-14T14:52:57.220Z,7.07
2022-09-14T14:55:27.327Z,6.10
2022-09-14T14:57:54.179Z,6.25
2022-09-14T15:00:24.178Z,6.60
2022-09-14T15:02:51.469Z,5.07
2022-09-14T15:05:19.018Z,6.35
2022-09-14T15:07:46.087Z,5.93
2022-09-14T15:10:16.796Z,5.78
2022-09-14T15:12:44.114Z,5.28
2022-09-14T15:15:23.862Z,8.63
2022-09-14T15:17:52.529Z,6.32
2022-09-14T15:20:19.931Z,7.03
2022-09-14T15:22:47.889Z,5.45
2022-09-14T15:25:15.886Z,3.95
2022-09-14T15:27:42.448Z,4.13
2022-09-14T15:30:11.369Z,3.83
2022-09-14T15:32:38.666Z,3.25
2022-09-14T15:35:08.537Z,3.40
2022-09-14T15:37:35.180Z,5.57
2022-09-14T15:40:03.321Z,5.43
2022-09-14T15:42:30.004Z,6.25
2022-09-14T15:44:56.567Z,4.22
2022-09-14T15:47:23.226Z,5.70
2022-09-14T15:49:52.783Z,7.80
2022-09-14T15:52:19.694Z,15.23
2022-09-14T15:54:46.431Z,7.13
2022-09-14T15:57:13.366Z,4.38
2022-09-14T15:59:40.049Z,5.53
2022-09-14T16:02:07.137Z,4.82
2022-09-14T16:04:38.454Z,4.88
2022-09-14T16:07:09.650Z,4.82
2022-09-14T16:09:41.387Z,6.25
2022-09-14T16:12:11.656Z,4.65
2022-09-14T16:14:38.415Z,3.85
2022-09-14T16:17:05.841Z,4.53
2022-09-14T16:19:32.834Z,2.40
2022-09-14T16:21:59.793Z,2.58
2022-09-14T16:24:27.211Z,3.45
2022-09-14T16:26:54.561Z,3.15
2022-09-14T16:29:24.008Z,2.55
2022-09-14T16:31:51.406Z,2.20
2022-09-14T16:34:25.975Z,2.00
2022-09-14T16:36:53.409Z,2.25
2022-09-14T16:39:26.847Z,2.60
2022-09-14T16:41:57.161Z,3.60
2022-09-14T16:44:26.074Z,2.42
2022-09-14T16:46:55.238Z,4.18
2022-09-14T16:49:26.508Z,3.20
2022-09-14T16:51:55.268Z,3.05
2022-09-14T16:54:24.297Z,3.08
2022-09-14T16:56:51.213Z,2.25
2022-09-14T16:59:22.959Z,3.45
2022-09-14T17:01:54.191Z,2.75
2022-09-14T17:04:22.206Z,4.35
2022-09-14T17:06:51.349Z,1.83
2022-09-14T17:09:23.234Z,3.13
2022-09-14T17:11:49.920Z,2.45
2022-09-14T17:14:19.616Z,3.95
2022-09-14T17:16:46.626Z,3.33
2022-09-14T17:19:13.966Z,3.45
2022-09-14T17:21:43.331Z,3.35
2022-09-14T17:24:21.355Z,5.18
2022-09-14T17:26:48.647Z,4.10
2022-09-14T17:29:15.435Z,3.63
2022-09-14T17:31:44.314Z,3.45
2022-09-14T17:34:14.055Z,3.70
2022-09-14T17:36:40.683Z,3.83
2022-09-14T17:39:11.541Z,2.90
2022-09-14T17:41:40.305Z,2.70
2022-09-14T17:44:09.458Z,1.63
2022-09-14T17:46:41.393Z,2.42
2022-09-14T17:49:13.444Z,2.67
2022-09-14T17:51:40.783Z,1.83
2022-09-14T17:54:07.763Z,4.13
2022-09-14T17:56:34.427Z,2.70
2022-09-14T17:59:10.883Z,2.80
2022-09-14T18:01:37.624Z,2.42
2022-09-14T18:04:11.880Z,4.55
2022-09-14T18:06:42.704Z,3.33
2022-09-14T18:09:22.832Z,2.40
2022-09-14T18:11:50.661Z,2.70
2022-09-14T18:14:17.747Z,3.63
2022-09-14T18:16:45.389Z,4.47
2022-09-14T18:19:12.531Z,5.28
2022-09-14T18:21:39.235Z,3.28
2022-09-14T18:24:06.650Z,1.75
2022-09-14T18:26:33.346Z,2.53
2022-09-14T18:29:00.055Z,5.72
2022-09-14T18:31:27.458Z,5.65
2022-09-14T18:33:59.124Z,2.55
2022-09-14T18:36:29.322Z,4.50
2022-09-14T18:38:59.560Z,2.50
2022-09-14T18:41:29.351Z,4.25
2022-09-14T18:43:56.079Z,5.22
2022-09-14T18:46:28.069Z,5.07
2022-09-14T18:48:59.867Z,3.90
2022-09-14T18:51:28.907Z,5.72
2022-09-14T18:54:02.988Z,3.72
2022-09-14T18:56:32.983Z,3.55
2022-09-14T18:59:08.367Z,3.50
2022-09-14T19:01:36.735Z,2.33
2022-09-14T19:04:05.745Z,1.70
2022-09-14T19:06:34.960Z,2.88
2022-09-14T19:09:01.797Z,5.18
2022-09-14T19:11:30.894Z,2.05
2022-09-14T19:14:01.476Z,2.88
2022-09-14T19:16:31.004Z,2.28
2022-09-14T19:18:58.159Z,1.30
2022-09-14T19:21:28.178Z,2.33
2022-09-14T19:24:07.494Z,1.30
2022-09-14T19:26:45.396Z,2.17
2022-09-14T19:29:14.975Z,1.95
2022-09-14T19:31:41.896Z,1.85
2022-09-14T19:34:10.466Z,3.92
2022-09-14T19:36:37.058Z,2.83
2022-09-14T19:39:04.878Z,1.42
2022-09-14T19:41:33.354Z,2.45
2022-09-14T19:44:01.758Z,1.20
2022-09-14T19:46:29.274Z,1.00
2022-09-14T19:48:55.964Z,1.00
2022-09-14T19:51:26.223Z,1.00
2022-09-14T19:53:55.897Z,0.82
2022-09-14T19:56:26.015Z,0.95
2022-09-14T19:58:55.948Z,0.57
2022-09-14T20:01:25.359Z,0.50
2022-09-14T20:03:52.808Z,0.60
2022-09-14T20:06:23.374Z,0.45
2022-09-14T20:08:53.508Z,0.60
2022-09-14T20:11:23.627Z,0.30
2022-09-14T20:13:53.868Z,0.30
2022-09-14T20:16:44.031Z,0.38
2022-09-14T20:19:18.714Z,1.83
2022-09-14T20:21:47.468Z,0.40
2022-09-14T20:24:18.662Z,2.10
2022-09-14T20:26:48.280Z,0.55
2022-09-14T20:29:17.640Z,0.40
2022-09-14T20:31:44.865Z,1.13
2022-09-14T20:34:12.850Z,0.50
2022-09-14T20:36:39.672Z,2.35
2022-09-14T20:39:06.722Z,0.88
2022-09-14T20:41:35.620Z,0.40
2022-09-14T20:44:03.635Z,0.98
2022-09-14T20:46:35.129Z,0.30
2022-09-14T20:49:04.189Z,2.05
2022-09-14T20:51:31.045Z,0.40
2022-09-14T20:53:57.985Z,0.35
2022-09-14T20:56:28.148Z,0.68
2022-09-14T20:58:58.120Z,0.60
2022-09-14T21:01:27.835Z,0.70
2022-09-14T21:03:54.788Z,0.93
2022-09-14T21:06:25.313Z,2.05
2022-09-14T21:08:52.544Z,1.05
2022-09-14T21:11:25.037Z,3.03
2022-09-14T21:13:57.493Z,0.40
2022-09-14T21:16:31.813Z,0.90
2022-09-14T21:19:03.565Z,0.40
2022-09-14T21:21:30.929Z,0.17
2022-09-14T21:23:59.625Z,0.70
2022-09-14T21:26:28.852Z,0.30
2022-09-14T21:28:58.381Z,0.30
2022-09-14T21:31:29.780Z,0.30
2022-09-14T21:33:59.468Z,0.32
2022-09-14T21:36:58.656Z,0.50
2022-09-14T21:39:26.950Z,0.50
2022-09-14T21:41:59.244Z,0.32
2022-09-14T21:44:31.800Z,0.38
2022-09-14T21:46:58.608Z,0.73
2022-09-14T21:49:25.268Z,0.63
2022-09-14T21:51:51.905Z,1.10
2022-09-14T21:54:18.548Z,0.95
2022-09-14T21:56:46.788Z,1.30
2022-09-14T21:59:21.288Z,0.73
2022-09-14T22:01:48.701Z,1.40
2022-09-14T22:04:19.252Z,1.35
2022-09-14T22:06:46.428Z,9.55
2022-09-14T22:09:15.620Z,6.60
2022-09-14T22:11:42.632Z,1.20
2022-09-14T22:14:17.977Z,2.90
2022-09-14T22:16:45.744Z,2.15
2022-09-14T22:19:19.140Z,3.85
2022-09-14T22:21:46.392Z,1.90
2022-09-14T22:24:18.319Z,1.35
2022-09-14T22:26:46.427Z,2.40
2022-09-14T22:29:14.420Z,0.85
2022-09-14T22:31:43.866Z,2.95
2022-09-14T22:34:11.160Z,5.68
2022-09-14T22:36:40.068Z,1.25
2022-09-14T22:39:07.764Z,1.35
2022-09-14T22:41:35.120Z,0.47
2022-09-14T22:44:03.361Z,3.70
2022-09-14T22:46:30.395Z,0.40
2022-09-14T22:48:57.232Z,0.60
2022-09-14T22:51:27.853Z,4.65
2022-09-14T22:53:54.805Z,5.55
2022-09-14T22:56:32.336Z,4.07
2022-09-14T22:59:01.336Z,4.15
2022-09-14T23:01:31.536Z,1.77
2022-09-14T23:04:06.433Z,2.22
2022-09-14T23:06:48.133Z,2.10
2022-09-14T23:09:18.729Z,3.78
2022-09-14T23:11:45.661Z,2.38
2022-09-14T23:14:14.069Z,3.13
2022-09-14T23:16:42.213Z,2.58
2022-09-14T23:19:14.707Z,1.73
2022-09-14T23:21:41.360Z,3.95
2022-09-14T23:24:08.146Z,1.30
2022-09-14T23:26:34.763Z,0.93
2022-09-14T23:29:09.285Z,3.35
2022-09-14T23:31:36.205Z,2.75
2022-09-14T23:34:04.677Z,0.82
2022-09-14T23:36:31.833Z,0.60
2022-09-14T23:38:59.075Z,3.42
2022-09-14T23:41:26.961Z,4.43
2022-09-14T23:43:54.117Z,0.57
2022-09-14T23:46:22.282Z,0.85
2022-09-14T23:48:49.620Z,0.93
2022-09-14T23:51:16.745Z,0.63
2022-09-14T23:53:43.702Z,0.60
2022-09-14T23:56:10.842Z,1.27
2022-09-14T23:58:38.131Z,1.98
